AirNav   Phillips 66 Aviation Fuel
 
 485 users online  

OK94 Sandridge Airpark Inc
Collinsville, Oklahoma, USA

GOING TO COLLINSVILLE?


FAA INFORMATION EFFECTIVE 24 MAY 2018

Location

FAA Identifier: OK94
Lat/Long: 36-21-16.4750N / 095-48-11.6000W
36-21.274583N / 095-48.193333W
36.3545764 / -95.8032222
(estimated)
Elevation: 690 ft. / 210 m (estimated)
Variation: 06E (1985)
From city: 2 miles SE of COLLINSVILLE, OK
Time zone: UTC -5 (UTC -6 during Standard Time)
Zip code: 74021

Airport Operations

Airport use: Private use. Permission required prior to landing
Activation date: 05/1972
Control tower: no
ARTCC: KANSAS CITY CENTER
FSS: MC ALESTER FLIGHT SERVICE STATION
Attendance: UNATNDD
Wind indicator: yes
Segmented circle: no
Lights: ACTVT LIRL RY 17/35 - 122.7.

Airport Communications

WX ASOS at TUL (10 nm SW): PHONE 918-831-6772
WX AWOS-3 at GCM (16 nm E): 119.925 (918-343-0184)

Nearby radio navigation aids

VOR radial/distance  VOR name  Freq  Var
TULr348/9.5TULSA VORTAC114.4008E
GNPr011/27.2GLENPOOL VOR/DME110.6006E
BVOr152/30.6BARTLESVILLE VOR/DME117.9008E
OKMr356/39.8OKMULGEE VOR/DME114.9008E

 
NDB name  Hdg/Dist  Freq  Var  ID
WILLIAM POGUE051/20.236206EOWP --- .-- .--.

Airport Services

Fuel available: MOGAS
NO ETHANOL.
Airframe service: NONE
Powerplant service: NONE

Runway Information

Runway 17/35

Dimensions: 2545 x 110 ft. / 776 x 34 m
Surface: turf
Runway edge lights: low intensity
RUNWAY 17  RUNWAY 35
Latitude: 36-21.484167N36-21.065000N
Longitude: 095-48.193333W095-48.193333W
Elevation: 680.0 ft.690.0 ft.
Traffic pattern: leftleft
Displaced threshold: 580 ft.305 ft.
Obstructions: pline, marked, 300 ft. from runwaynone

Airport Ownership and Management from official FAA records

Ownership: Privately-owned
Owner: SANDRIDGE AIRPARK INC
13869 N. 152 EAST
COLLINSVILLE, OK 74021
Manager: RUSTY LOUNDENSLAGER
13869 N. 152ND E. AVE.
COLLINSVILLE, OK 74021

Airport Operational Statistics

Aircraft based on the field: 40
Single engine airplanes: 39
Ultralights: 1
    

Instrument Procedures

There are no published instrument procedures at OK94.

Some nearby airports with instrument procedures:

KTUL - Tulsa International Airport (10 nm SW)
KGCM - Claremore Regional Airport (16 nm E)
KOWP - William R Pogue Municipal Airport (20 nm SW)
KRVS - Richard Lloyd Jones Jr Airport (21 nm SW)
H71 - Mid-America Industrial Airport (24 nm E)
 
Loc | Ops | Rwys | IFR | FBO | Links
Com | Nav | Svcs | Stats | Notes

AirNav Hotels Sweepstakes
 
Area around OK94 (Sandridge Airpark Inc)
 
Road maps at: MapQuest Bing Google
 
Aerial photo
WARNING: Photo may not be current or correct
Aerial photo of OK94 (Sandridge Airpark Inc)
Do you have a better or more recent aerial photo of Sandridge Airpark Inc that you would like to share? If so, please send us your photo.

 
Sectional chart

 
Airport distance calculator
Flying to Sandridge Airpark Inc? Find the distance to fly.

From to OK94

Sunrise and sunset
Times for 18-Jun-2018
 Local
(UTC-5)
 Zulu
(UTC)
Morning civil twilight05:3610:36
Sunrise06:0611:06
Sunset20:4201:42
Evening civil twilight21:1302:13

Current date and time
Zulu (UTC)  18-Jun-2018 10:45:07
Local (UTC-5)  18-Jun-2018 05:45:07
 
METAR
KTUL 
10nm SW 
180953Z 17015G20KT 10SM SCT250 27/21 A2997 RMK AO2 SLP138 T02670211
KGCM 
16nm E 
181035Z AUTO 16004KT 10SM CLR 22/20 A3003 RMK AO2
KOWP 
20nm SW 
181035Z AUTO 17006KT 10SM CLR 26/21 A3000 RMK AO2 T02560210
TAF
KTUL 
10nm SW 
180520Z 1806/1906 13006KT P6SM FEW250 FM181100 17007KT P6SM BKN015 FM181500 16011G17KT P6SM BKN025 FM181700 16011G17KT P6SM SCT050 FM190000 16010KT P6SM SCT250
NOTAMs
Click for the latest NOTAMs
NOTAMs are issued by the DoD/FAA and will open in a separate window not controlled by AirNav.

 

 
 

Would you like to see your business listed on this page?

 If your business provides an interesting product or service to pilots, flight crews, aircraft, or users of the Sandridge Airpark Inc, you should consider listing it here.  To start the listing process, click on the button below
 
Add a business
 

Other Pages about Sandridge Airpark Inc

Update a link
 
Copyright © AirNav, LLC. All rights reserved. Privacy Policy  Contact